sensor_id;sensor_type;location;lat;lon;timestamp;P1;durP1;ratioP1;P2;durP2;ratioP2
16308;SDS011;8263;48.880;9.276;2023-05-19T00:00:44;125.22;;;116.63;;
16308;SDS011;8263;48.880;9.276;2023-05-19T00:03:11;127.43;;;118.65;;
16308;SDS011;8263;48.880;9.276;2023-05-19T00:05:38;128.10;;;119.30;;
16308;SDS011;8263;48.880;9.276;2023-05-19T00:08:09;128.35;;;119.53;;
16308;SDS011;8263;48.880;9.276;2023-05-19T00:10:36;128.77;;;119.95;;
16308;SDS011;8263;48.880;9.276;2023-05-19T00:13:03;128.35;;;119.03;;
16308;SDS011;8263;48.880;9.276;2023-05-19T00:15:30;128.50;;;119.65;;
16308;SDS011;8263;48.880;9.276;2023-05-19T00:17:58;127.80;;;118.82;;
16308;SDS011;8263;48.880;9.276;2023-05-19T00:20:25;127.32;;;118.40;;
16308;SDS011;8263;48.880;9.276;2023-05-19T00:22:51;128.95;;;120.00;;
16308;SDS011;8263;48.880;9.276;2023-05-19T00:25:18;127.82;;;119.03;;
16308;SDS011;8263;48.880;9.276;2023-05-19T00:27:44;128.57;;;119.68;;
16308;SDS011;8263;48.880;9.276;2023-05-19T00:30:11;127.57;;;118.78;;
16308;SDS011;8263;48.880;9.276;2023-05-19T00:32:38;129.30;;;120.30;;
16308;SDS011;8263;48.880;9.276;2023-05-19T00:35:06;128.85;;;119.85;;
16308;SDS011;8263;48.880;9.276;2023-05-19T00:37:33;127.50;;;118.72;;
16308;SDS011;8263;48.880;9.276;2023-05-19T00:39:59;129.45;;;120.45;;
16308;SDS011;8263;48.880;9.276;2023-05-19T00:42:26;128.60;;;119.65;;
16308;SDS011;8263;48.880;9.276;2023-05-19T00:44:52;126.72;;;117.47;;
16308;SDS011;8263;48.880;9.276;2023-05-19T00:47:19;129.45;;;120.35;;
16308;SDS011;8263;48.880;9.276;2023-05-19T00:49:46;129.90;;;120.90;;
16308;SDS011;8263;48.880;9.276;2023-05-19T00:52:14;128.00;;;119.20;;
16308;SDS011;8263;48.880;9.276;2023-05-19T00:54:40;130.13;;;120.47;;
16308;SDS011;8263;48.880;9.276;2023-05-19T00:57:07;128.45;;;119.25;;
16308;SDS011;8263;48.880;9.276;2023-05-19T00:59:34;129.70;;;120.70;;
16308;SDS011;8263;48.880;9.276;2023-05-19T01:02:00;130.48;;;120.90;;
16308;SDS011;8263;48.880;9.276;2023-05-19T01:04:27;128.63;;;119.45;;
16308;SDS011;8263;48.880;9.276;2023-05-19T01:06:58;129.10;;;120.20;;
16308;SDS011;8263;48.880;9.276;2023-05-19T01:09:27;130.32;;;120.97;;
16308;SDS011;8263;48.880;9.276;2023-05-19T01:11:54;130.45;;;121.25;;
16308;SDS011;8263;48.880;9.276;2023-05-19T01:14:21;129.27;;;120.28;;
16308;SDS011;8263;48.880;9.276;2023-05-19T01:16:49;128.68;;;119.65;;
16308;SDS011;8263;48.880;9.276;2023-05-19T01:19:25;130.45;;;121.25;;
16308;SDS011;8263;48.880;9.276;2023-05-19T01:22:05;127.65;;;118.88;;
16308;SDS011;8263;48.880;9.276;2023-05-19T01:30:21;129.75;;;120.75;;
16308;SDS011;8263;48.880;9.276;2023-05-19T01:32:49;128.43;;;119.50;;
16308;SDS011;8263;48.880;9.276;2023-05-19T01:35:17;128.75;;;119.85;;
16308;SDS011;8263;48.880;9.276;2023-05-19T01:37:44;128.70;;;119.78;;
16308;SDS011;8263;48.880;9.276;2023-05-19T01:40:11;128.95;;;120.05;;
16308;SDS011;8263;48.880;9.276;2023-05-19T01:42:37;129.75;;;120.78;;
16308;SDS011;8263;48.880;9.276;2023-05-19T01:45:05;130.25;;;121.22;;
16308;SDS011;8263;48.880;9.276;2023-05-19T01:47:37;130.85;;;121.72;;
16308;SDS011;8263;48.880;9.276;2023-05-19T01:50:05;129.27;;;120.30;;
16308;SDS011;8263;48.880;9.276;2023-05-19T01:52:32;130.40;;;121.30;;
16308;SDS011;8263;48.880;9.276;2023-05-19T01:54:58;130.90;;;121.80;;
16308;SDS011;8263;48.880;9.276;2023-05-19T01:57:27;129.43;;;120.43;;
16308;SDS011;8263;48.880;9.276;2023-05-19T02:00:00;130.25;;;121.25;;
16308;SDS011;8263;48.880;9.276;2023-05-19T02:02:32;128.82;;;119.90;;
16308;SDS011;8263;48.880;9.276;2023-05-19T02:05:03;128.70;;;119.75;;
16308;SDS011;8263;48.880;9.276;2023-05-19T02:07:36;129.30;;;120.32;;
16308;SDS011;8263;48.880;9.276;2023-05-19T02:10:09;129.73;;;120.68;;
16308;SDS011;8263;48.880;9.276;2023-05-19T02:12:36;128.38;;;119.47;;
16308;SDS011;8263;48.880;9.276;2023-05-19T02:15:04;129.40;;;120.32;;
16308;SDS011;8263;48.880;9.276;2023-05-19T02:17:33;128.85;;;119.85;;
16308;SDS011;8263;48.880;9.276;2023-05-19T02:20:03;128.85;;;119.55;;
16308;SDS011;8263;48.880;9.276;2023-05-19T02:22:30;129.75;;;120.75;;
16308;SDS011;8263;48.880;9.276;2023-05-19T02:24:56;130.45;;;121.38;;
16308;SDS011;8263;48.880;9.276;2023-05-19T02:27:22;127.47;;;118.65;;
16308;SDS011;8263;48.880;9.276;2023-05-19T02:29:50;131.18;;;121.97;;
16308;SDS011;8263;48.880;9.276;2023-05-19T02:32:16;128.98;;;120.05;;
16308;SDS011;8263;48.880;9.276;2023-05-19T02:34:43;130.73;;;121.57;;
16308;SDS011;8263;48.880;9.276;2023-05-19T02:37:12;128.70;;;119.75;;
16308;SDS011;8263;48.880;9.276;2023-05-19T02:39:38;130.02;;;120.68;;
16308;SDS011;8263;48.880;9.276;2023-05-19T02:42:05;130.32;;;121.25;;
16308;SDS011;8263;48.880;9.276;2023-05-19T02:44:31;129.02;;;120.05;;
16308;SDS011;8263;48.880;9.276;2023-05-19T02:46:58;130.95;;;121.85;;
16308;SDS011;8263;48.880;9.276;2023-05-19T02:49:24;128.57;;;119.32;;
16308;SDS011;8263;48.880;9.276;2023-05-19T02:51:51;129.68;;;120.65;;
16308;SDS011;8263;48.880;9.276;2023-05-19T02:54:19;128.07;;;119.18;;
16308;SDS011;8263;48.880;9.276;2023-05-19T02:56:46;127.03;;;118.22;;
16308;SDS011;8263;48.880;9.276;2023-05-19T02:59:12;131.18;;;121.95;;
16308;SDS011;8263;48.880;9.276;2023-05-19T03:01:39;129.73;;;120.72;;
16308;SDS011;8263;48.880;9.276;2023-05-19T03:04:06;129.93;;;120.93;;
16308;SDS011;8263;48.880;9.276;2023-05-19T03:06:33;130.35;;;121.25;;
16308;SDS011;8263;48.880;9.276;2023-05-19T03:09:00;131.32;;;121.65;;
16308;SDS011;8263;48.880;9.276;2023-05-19T03:11:28;131.30;;;122.18;;
16308;SDS011;8263;48.880;9.276;2023-05-19T03:13:55;131.05;;;121.85;;
16308;SDS011;8263;48.880;9.276;2023-05-19T03:16:21;130.57;;;121.45;;
16308;SDS011;8263;48.880;9.276;2023-05-19T03:18:48;129.93;;;120.88;;
16308;SDS011;8263;48.880;9.276;2023-05-19T03:21:15;131.07;;;121.90;;
16308;SDS011;8263;48.880;9.276;2023-05-19T03:23:41;130.45;;;121.25;;
16308;SDS011;8263;48.880;9.276;2023-05-19T03:26:08;129.18;;;120.20;;
16308;SDS011;8263;48.880;9.276;2023-05-19T03:28:36;132.13;;;122.72;;
16308;SDS011;8263;48.880;9.276;2023-05-19T03:31:02;130.27;;;120.70;;
16308;SDS011;8263;48.880;9.276;2023-05-19T03:33:29;128.25;;;119.38;;
16308;SDS011;8263;48.880;9.276;2023-05-19T03:35:55;132.45;;;123.03;;
16308;SDS011;8263;48.880;9.276;2023-05-19T03:38:22;131.98;;;122.13;;
16308;SDS011;8263;48.880;9.276;2023-05-19T03:40:48;130.48;;;121.40;;
16308;SDS011;8263;48.880;9.276;2023-05-19T03:43:15;130.55;;;121.40;;
16308;SDS011;8263;48.880;9.276;2023-05-19T03:45:44;132.00;;;122.80;;
16308;SDS011;8263;48.880;9.276;2023-05-19T03:48:10;132.35;;;123.05;;
16308;SDS011;8263;48.880;9.276;2023-05-19T03:50:39;129.45;;;120.43;;
16308;SDS011;8263;48.880;9.276;2023-05-19T03:53:06;131.98;;;122.72;;
16308;SDS011;8263;48.880;9.276;2023-05-19T03:55:33;131.30;;;122.10;;
16308;SDS011;8263;48.880;9.276;2023-05-19T03:58:01;131.25;;;122.05;;
16308;SDS011;8263;48.880;9.276;2023-05-19T04:00:27;131.98;;;122.63;;
16308;SDS011;8263;48.880;9.276;2023-05-19T04:02:56;132.15;;;122.93;;
16308;SDS011;8263;48.880;9.276;2023-05-19T04:05:24;131.63;;;122.43;;
16308;SDS011;8263;48.880;9.276;2023-05-19T04:07:50;131.45;;;122.25;;
16308;SDS011;8263;48.880;9.276;2023-05-19T04:10:16;132.40;;;123.10;;
16308;SDS011;8263;48.880;9.276;2023-05-19T04:12:44;132.80;;;123.32;;
16308;SDS011;8263;48.880;9.276;2023-05-19T04:15:11;130.80;;;121.70;;
16308;SDS011;8263;48.880;9.276;2023-05-19T04:17:38;130.57;;;121.47;;
16308;SDS011;8263;48.880;9.276;2023-05-19T04:20:07;130.63;;;121.47;;
16308;SDS011;8263;48.880;9.276;2023-05-19T04:22:34;130.80;;;121.43;;
16308;SDS011;8263;48.880;9.276;2023-05-19T04:25:01;132.48;;;123.07;;
16308;SDS011;8263;48.880;9.276;2023-05-19T04:27:28;131.30;;;122.07;;
16308;SDS011;8263;48.880;9.276;2023-05-19T04:29:56;133.65;;;124.28;;
16308;SDS011;8263;48.880;9.276;2023-05-19T04:32:23;134.10;;;124.70;;
16308;SDS011;8263;48.880;9.276;2023-05-19T04:34:49;131.13;;;121.97;;
16308;SDS011;8263;48.880;9.276;2023-05-19T04:37:17;131.25;;;122.10;;
16308;SDS011;8263;48.880;9.276;2023-05-19T04:39:44;133.75;;;124.28;;
16308;SDS011;8263;48.880;9.276;2023-05-19T04:42:11;131.80;;;122.53;;
16308;SDS011;8263;48.880;9.276;2023-05-19T04:44:38;131.82;;;122.53;;
16308;SDS011;8263;48.880;9.276;2023-05-19T04:47:05;131.50;;;122.00;;
16308;SDS011;8263;48.880;9.276;2023-05-19T04:49:33;132.82;;;123.53;;
16308;SDS011;8263;48.880;9.276;2023-05-19T04:52:03;132.23;;;122.93;;
16308;SDS011;8263;48.880;9.276;2023-05-19T04:54:32;132.02;;;122.78;;
16308;SDS011;8263;48.880;9.276;2023-05-19T04:56:58;131.57;;;122.38;;
16308;SDS011;8263;48.880;9.276;2023-05-19T04:59:25;133.20;;;123.82;;
16308;SDS011;8263;48.880;9.276;2023-05-19T05:01:51;132.50;;;123.25;;
16308;SDS011;8263;48.880;9.276;2023-05-19T05:04:18;131.00;;;121.82;;
16308;SDS011;8263;48.880;9.276;2023-05-19T05:06:45;132.60;;;123.30;;
16308;SDS011;8263;48.880;9.276;2023-05-19T05:09:12;131.93;;;122.70;;
16308;SDS011;8263;48.880;9.276;2023-05-19T05:11:41;132.50;;;123.20;;
16308;SDS011;8263;48.880;9.276;2023-05-19T05:14:07;132.48;;;122.95;;
16308;SDS011;8263;48.880;9.276;2023-05-19T05:16:34;133.77;;;124.07;;
16308;SDS011;8263;48.880;9.276;2023-05-19T05:19:01;133.48;;;123.97;;
16308;SDS011;8263;48.880;9.276;2023-05-19T05:21:28;135.02;;;125.13;;
16308;SDS011;8263;48.880;9.276;2023-05-19T05:23:55;134.05;;;124.55;;
16308;SDS011;8263;48.880;9.276;2023-05-19T05:26:22;132.80;;;123.53;;
16308;SDS011;8263;48.880;9.276;2023-05-19T05:28:54;132.45;;;123.22;;
16308;SDS011;8263;48.880;9.276;2023-05-19T05:31:20;133.45;;;124.05;;
16308;SDS011;8263;48.880;9.276;2023-05-19T05:33:46;132.95;;;123.38;;
16308;SDS011;8263;48.880;9.276;2023-05-19T05:36:13;130.88;;;121.70;;
16308;SDS011;8263;48.880;9.276;2023-05-19T05:38:39;133.50;;;123.70;;
16308;SDS011;8263;48.880;9.276;2023-05-19T05:41:06;132.60;;;123.30;;
16308;SDS011;8263;48.880;9.276;2023-05-19T05:43:33;132.80;;;123.50;;
16308;SDS011;8263;48.880;9.276;2023-05-19T05:46:01;133.45;;;123.97;;
16308;SDS011;8263;48.880;9.276;2023-05-19T05:48:27;132.38;;;123.07;;
16308;SDS011;8263;48.880;9.276;2023-05-19T05:50:54;132.82;;;123.47;;
16308;SDS011;8263;48.880;9.276;2023-05-19T05:53:21;132.98;;;123.57;;
16308;SDS011;8263;48.880;9.276;2023-05-19T05:55:50;132.70;;;123.30;;
16308;SDS011;8263;48.880;9.276;2023-05-19T05:58:17;134.30;;;124.80;;
16308;SDS011;8263;48.880;9.276;2023-05-19T06:00:45;133.05;;;123.75;;
16308;SDS011;8263;48.880;9.276;2023-05-19T06:03:13;133.05;;;123.68;;
16308;SDS011;8263;48.880;9.276;2023-05-19T06:05:40;133.98;;;124.40;;
16308;SDS011;8263;48.880;9.276;2023-05-19T06:08:07;131.75;;;122.55;;
16308;SDS011;8263;48.880;9.276;2023-05-19T06:10:33;132.88;;;123.55;;
16308;SDS011;8263;48.880;9.276;2023-05-19T06:13:02;133.07;;;123.57;;
16308;SDS011;8263;48.880;9.276;2023-05-19T06:15:29;133.82;;;124.28;;
16308;SDS011;8263;48.880;9.276;2023-05-19T06:17:55;133.90;;;124.47;;
16308;SDS011;8263;48.880;9.276;2023-05-19T06:20:23;130.75;;;121.63;;
16308;SDS011;8263;48.880;9.276;2023-05-19T06:22:50;131.38;;;121.65;;
16308;SDS011;8263;48.880;9.276;2023-05-19T06:25:17;132.02;;;122.53;;
16308;SDS011;8263;48.880;9.276;2023-05-19T06:27:44;131.38;;;122.20;;
16308;SDS011;8263;48.880;9.276;2023-05-19T06:30:11;129.63;;;120.60;;
16308;SDS011;8263;48.880;9.276;2023-05-19T06:32:38;131.38;;;122.18;;
16308;SDS011;8263;48.880;9.276;2023-05-19T06:35:05;132.10;;;122.90;;
16308;SDS011;8263;48.880;9.276;2023-05-19T06:37:33;132.32;;;122.80;;
16308;SDS011;8263;48.880;9.276;2023-05-19T06:40:00;131.18;;;121.90;;
16308;SDS011;8263;48.880;9.276;2023-05-19T06:42:27;131.52;;;121.88;;
16308;SDS011;8263;48.880;9.276;2023-05-19T06:44:54;131.77;;;122.32;;
16308;SDS011;8263;48.880;9.276;2023-05-19T06:47:20;131.13;;;121.88;;
16308;SDS011;8263;48.880;9.276;2023-05-19T06:49:47;129.45;;;120.35;;
16308;SDS011;8263;48.880;9.276;2023-05-19T06:52:19;130.90;;;121.75;;
16308;SDS011;8263;48.880;9.276;2023-05-19T06:54:47;132.05;;;122.78;;
16308;SDS011;8263;48.880;9.276;2023-05-19T06:57:14;129.98;;;120.95;;
16308;SDS011;8263;48.880;9.276;2023-05-19T06:59:40;129.43;;;120.43;;
16308;SDS011;8263;48.880;9.276;2023-05-19T07:02:07;129.70;;;120.60;;
16308;SDS011;8263;48.880;9.276;2023-05-19T07:04:34;129.90;;;120.72;;
16308;SDS011;8263;48.880;9.276;2023-05-19T07:07:00;130.07;;;120.90;;
16308;SDS011;8263;48.880;9.276;2023-05-19T07:09:27;130.52;;;121.43;;
16308;SDS011;8263;48.880;9.276;2023-05-19T07:11:55;131.13;;;121.95;;
16308;SDS011;8263;48.880;9.276;2023-05-19T07:14:21;131.27;;;122.15;;
16308;SDS011;8263;48.880;9.276;2023-05-19T07:16:47;131.23;;;121.93;;
16308;SDS011;8263;48.880;9.276;2023-05-19T07:19:14;127.78;;;118.93;;
16308;SDS011;8263;48.880;9.276;2023-05-19T07:21:43;127.43;;;118.65;;
16308;SDS011;8263;48.880;9.276;2023-05-19T07:24:09;128.65;;;119.72;;
16308;SDS011;8263;48.880;9.276;2023-05-19T07:26:36;128.23;;;119.43;;
16308;SDS011;8263;48.880;9.276;2023-05-19T07:29:04;129.63;;;120.55;;
16308;SDS011;8263;48.880;9.276;2023-05-19T07:31:31;128.02;;;118.88;;
16308;SDS011;8263;48.880;9.276;2023-05-19T07:33:58;129.82;;;120.82;;
16308;SDS011;8263;48.880;9.276;2023-05-19T07:36:24;128.90;;;120.00;;
16308;SDS011;8263;48.880;9.276;2023-05-19T07:38:51;129.25;;;120.25;;
16308;SDS011;8263;48.880;9.276;2023-05-19T07:41:17;129.32;;;120.38;;
16308;SDS011;8263;48.880;9.276;2023-05-19T07:43:45;128.18;;;118.80;;
16308;SDS011;8263;48.880;9.276;2023-05-19T07:46:13;129.07;;;119.88;;
16308;SDS011;8263;48.880;9.276;2023-05-19T07:48:40;128.38;;;119.38;;
16308;SDS011;8263;48.880;9.276;2023-05-19T07:51:06;126.70;;;117.88;;
16308;SDS011;8263;48.880;9.276;2023-05-19T07:53:34;127.82;;;118.93;;
16308;SDS011;8263;48.880;9.276;2023-05-19T07:56:01;126.53;;;117.82;;
16308;SDS011;8263;48.880;9.276;2023-05-19T07:58:27;125.35;;;116.72;;
16308;SDS011;8263;48.880;9.276;2023-05-19T08:00:55;127.88;;;118.95;;
16308;SDS011;8263;48.880;9.276;2023-05-19T08:03:23;127.72;;;118.93;;
16308;SDS011;8263;48.880;9.276;2023-05-19T08:05:50;127.82;;;119.10;;
16308;SDS011;8263;48.880;9.276;2023-05-19T08:08:17;128.65;;;119.75;;
16308;SDS011;8263;48.880;9.276;2023-05-19T08:10:43;129.63;;;120.38;;
16308;SDS011;8263;48.880;9.276;2023-05-19T08:13:10;126.25;;;117.60;;
16308;SDS011;8263;48.880;9.276;2023-05-19T08:15:36;128.35;;;119.43;;
16308;SDS011;8263;48.880;9.276;2023-05-19T08:18:03;128.63;;;119.75;;
16308;SDS011;8263;48.880;9.276;2023-05-19T08:20:31;127.85;;;118.82;;
16308;SDS011;8263;48.880;9.276;2023-05-19T08:22:58;129.88;;;120.43;;
16308;SDS011;8263;48.880;9.276;2023-05-19T08:25:24;127.50;;;118.78;;
16308;SDS011;8263;48.880;9.276;2023-05-19T08:27:52;125.53;;;116.93;;
16308;SDS011;8263;48.880;9.276;2023-05-19T08:30:18;126.15;;;117.50;;
16308;SDS011;8263;48.880;9.276;2023-05-19T08:32:45;124.82;;;116.32;;
16308;SDS011;8263;48.880;9.276;2023-05-19T08:35:12;128.18;;;119.38;;
16308;SDS011;8263;48.880;9.276;2023-05-19T08:37:40;125.53;;;116.72;;
16308;SDS011;8263;48.880;9.276;2023-05-19T08:40:07;125.30;;;116.78;;
16308;SDS011;8263;48.880;9.276;2023-05-19T08:42:37;126.57;;;117.97;;
16308;SDS011;8263;48.880;9.276;2023-05-19T08:45:05;126.05;;;117.45;;
16308;SDS011;8263;48.880;9.276;2023-05-19T08:47:32;125.07;;;116.45;;
16308;SDS011;8263;48.880;9.276;2023-05-19T08:50:00;126.43;;;117.78;;
16308;SDS011;8263;48.880;9.276;2023-05-19T08:52:30;128.13;;;119.03;;
16308;SDS011;8263;48.880;9.276;2023-05-19T08:55:02;128.55;;;119.65;;
16308;SDS011;8263;48.880;9.276;2023-05-19T08:57:30;125.65;;;117.10;;
16308;SDS011;8263;48.880;9.276;2023-05-19T08:59:57;126.15;;;117.22;;
16308;SDS011;8263;48.880;9.276;2023-05-19T09:02:23;126.85;;;118.15;;
16308;SDS011;8263;48.880;9.276;2023-05-19T09:04:50;126.45;;;117.75;;
16308;SDS011;8263;48.880;9.276;2023-05-19T09:07:17;125.82;;;117.13;;
16308;SDS011;8263;48.880;9.276;2023-05-19T09:09:45;127.35;;;118.45;;
16308;SDS011;8263;48.880;9.276;2023-05-19T09:12:13;126.55;;;117.85;;
16308;SDS011;8263;48.880;9.276;2023-05-19T09:14:40;125.20;;;116.70;;
16308;SDS011;8263;48.880;9.276;2023-05-19T09:17:06;124.90;;;116.40;;
16308;SDS011;8263;48.880;9.276;2023-05-19T09:19:33;126.35;;;117.55;;
16308;SDS011;8263;48.880;9.276;2023-05-19T09:22:00;125.70;;;117.03;;
16308;SDS011;8263;48.880;9.276;2023-05-19T09:24:27;126.72;;;117.95;;
16308;SDS011;8263;48.880;9.276;2023-05-19T09:26:54;124.03;;;115.57;;
16308;SDS011;8263;48.880;9.276;2023-05-19T09:29:23;125.03;;;116.50;;
16308;SDS011;8263;48.880;9.276;2023-05-19T09:31:50;125.43;;;116.90;;
16308;SDS011;8263;48.880;9.276;2023-05-19T09:34:16;125.50;;;116.90;;
16308;SDS011;8263;48.880;9.276;2023-05-19T09:36:44;123.85;;;115.45;;
16308;SDS011;8263;48.880;9.276;2023-05-19T09:39:13;124.63;;;116.13;;
16308;SDS011;8263;48.880;9.276;2023-05-19T09:41:39;123.07;;;114.75;;
16308;SDS011;8263;48.880;9.276;2023-05-19T09:44:06;124.03;;;115.38;;
16308;SDS011;8263;48.880;9.276;2023-05-19T09:46:34;126.68;;;117.88;;
16308;SDS011;8263;48.880;9.276;2023-05-19T09:49:07;124.00;;;115.50;;
16308;SDS011;8263;48.880;9.276;2023-05-19T09:51:33;125.53;;;116.60;;
16308;SDS011;8263;48.880;9.276;2023-05-19T09:54:01;125.90;;;117.30;;
16308;SDS011;8263;48.880;9.276;2023-05-19T09:56:30;126.78;;;118.00;;
16308;SDS011;8263;48.880;9.276;2023-05-19T09:58:57;124.82;;;116.32;;
16308;SDS011;8263;48.880;9.276;2023-05-19T10:01:24;124.30;;;115.88;;
16308;SDS011;8263;48.880;9.276;2023-05-19T10:03:52;124.75;;;116.18;;
16308;SDS011;8263;48.880;9.276;2023-05-19T10:06:19;124.13;;;115.72;;
16308;SDS011;8263;48.880;9.276;2023-05-19T10:08:46;125.03;;;116.53;;
16308;SDS011;8263;48.880;9.276;2023-05-19T10:11:14;124.53;;;116.03;;
16308;SDS011;8263;48.880;9.276;2023-05-19T10:13:42;123.68;;;115.28;;
16308;SDS011;8263;48.880;9.276;2023-05-19T10:16:10;123.95;;;115.53;;
16308;SDS011;8263;48.880;9.276;2023-05-19T10:18:37;122.43;;;114.13;;
16308;SDS011;8263;48.880;9.276;2023-05-19T10:21:05;122.82;;;114.50;;
16308;SDS011;8263;48.880;9.276;2023-05-19T10:23:33;125.72;;;117.10;;
16308;SDS011;8263;48.880;9.276;2023-05-19T10:25:59;123.90;;;115.45;;
16308;SDS011;8263;48.880;9.276;2023-05-19T10:28:30;124.18;;;115.78;;
16308;SDS011;8263;48.880;9.276;2023-05-19T10:30:59;123.47;;;115.10;;
16308;SDS011;8263;48.880;9.276;2023-05-19T10:33:27;124.75;;;116.05;;
16308;SDS011;8263;48.880;9.276;2023-05-19T10:36:08;122.18;;;113.88;;
16308;SDS011;8263;48.880;9.276;2023-05-19T10:38:40;122.80;;;114.50;;
16308;SDS011;8263;48.880;9.276;2023-05-19T10:41:09;123.88;;;115.38;;
16308;SDS011;8263;48.880;9.276;2023-05-19T10:43:46;122.82;;;114.53;;
16308;SDS011;8263;48.880;9.276;2023-05-19T10:46:14;126.15;;;117.45;;
16308;SDS011;8263;48.880;9.276;2023-05-19T10:48:43;120.28;;;111.97;;
16308;SDS011;8263;48.880;9.276;2023-05-19T10:51:11;123.47;;;115.13;;
16308;SDS011;8263;48.880;9.276;2023-05-19T10:53:39;124.10;;;115.20;;
16308;SDS011;8263;48.880;9.276;2023-05-19T10:56:10;122.50;;;114.20;;
16308;SDS011;8263;48.880;9.276;2023-05-19T10:58:48;122.38;;;113.97;;
16308;SDS011;8263;48.880;9.276;2023-05-19T11:01:15;122.65;;;114.22;;
16308;SDS011;8263;48.880;9.276;2023-05-19T11:03:45;122.63;;;114.30;;
16308;SDS011;8263;48.880;9.276;2023-05-19T11:09:02;123.18;;;114.72;;
16308;SDS011;8263;48.880;9.276;2023-05-19T11:11:44;121.80;;;113.55;;
16308;SDS011;8263;48.880;9.276;2023-05-19T11:14:11;119.88;;;111.80;;
16308;SDS011;8263;48.880;9.276;2023-05-19T11:16:39;123.60;;;115.20;;
16308;SDS011;8263;48.880;9.276;2023-05-19T11:19:07;122.13;;;113.88;;
16308;SDS011;8263;48.880;9.276;2023-05-19T11:21:41;124.25;;;115.30;;
16308;SDS011;8263;48.880;9.276;2023-05-19T11:24:09;122.72;;;114.20;;
16308;SDS011;8263;48.880;9.276;2023-05-19T11:26:56;123.15;;;114.75;;
16308;SDS011;8263;48.880;9.276;2023-05-19T11:29:23;123.68;;;115.28;;
16308;SDS011;8263;48.880;9.276;2023-05-19T11:31:50;123.10;;;114.72;;
16308;SDS011;8263;48.880;9.276;2023-05-19T11:34:17;121.85;;;113.57;;
16308;SDS011;8263;48.880;9.276;2023-05-19T11:36:46;119.45;;;111.45;;
16308;SDS011;8263;48.880;9.276;2023-05-19T11:39:14;119.28;;;111.22;;
16308;SDS011;8263;48.880;9.276;2023-05-19T11:41:42;123.07;;;114.57;;
16308;SDS011;8263;48.880;9.276;2023-05-19T11:44:09;120.53;;;112.35;;
16308;SDS011;8263;48.880;9.276;2023-05-19T11:46:36;122.13;;;113.75;;
16308;SDS011;8263;48.880;9.276;2023-05-19T11:49:03;122.45;;;114.05;;
16308;SDS011;8263;48.880;9.276;2023-05-19T11:51:30;121.50;;;113.28;;
16308;SDS011;8263;48.880;9.276;2023-05-19T11:53:57;121.45;;;113.28;;
16308;SDS011;8263;48.880;9.276;2023-05-19T11:56:25;120.18;;;112.07;;
16308;SDS011;8263;48.880;9.276;2023-05-19T11:58:52;119.25;;;110.93;;
16308;SDS011;8263;48.880;9.276;2023-05-19T12:01:22;119.28;;;110.88;;
16308;SDS011;8263;48.880;9.276;2023-05-19T12:03:50;120.55;;;112.07;;
16308;SDS011;8263;48.880;9.276;2023-05-19T12:06:16;122.05;;;113.80;;
16308;SDS011;8263;48.880;9.276;2023-05-19T12:08:43;119.03;;;110.97;;
16308;SDS011;8263;48.880;9.276;2023-05-19T12:11:10;119.20;;;110.72;;
16308;SDS011;8263;48.880;9.276;2023-05-19T12:13:38;118.43;;;110.40;;
16308;SDS011;8263;48.880;9.276;2023-05-19T12:16:05;120.40;;;112.25;;
16308;SDS011;8263;48.880;9.276;2023-05-19T12:18:35;119.82;;;111.82;;
16308;SDS011;8263;48.880;9.276;2023-05-19T12:21:02;119.15;;;111.03;;
16308;SDS011;8263;48.880;9.276;2023-05-19T12:23:28;120.22;;;112.03;;
16308;SDS011;8263;48.880;9.276;2023-05-19T12:25:55;118.78;;;110.65;;
16308;SDS011;8263;48.880;9.276;2023-05-19T12:28:22;120.72;;;112.63;;
16308;SDS011;8263;48.880;9.276;2023-05-19T12:30:50;121.55;;;113.35;;
16308;SDS011;8263;48.880;9.276;2023-05-19T12:33:17;118.57;;;110.53;;
16308;SDS011;8263;48.880;9.276;2023-05-19T12:35:44;119.53;;;111.53;;
16308;SDS011;8263;48.880;9.276;2023-05-19T12:38:12;120.43;;;112.00;;
16308;SDS011;8263;48.880;9.276;2023-05-19T12:40:39;119.35;;;111.35;;
16308;SDS011;8263;48.880;9.276;2023-05-19T12:43:05;120.75;;;111.95;;
16308;SDS011;8263;48.880;9.276;2023-05-19T12:45:33;120.00;;;111.93;;
16308;SDS011;8263;48.880;9.276;2023-05-19T12:48:03;119.95;;;111.90;;
16308;SDS011;8263;48.880;9.276;2023-05-19T12:50:30;120.57;;;112.47;;
16308;SDS011;8263;48.880;9.276;2023-05-19T12:52:57;118.38;;;110.47;;
16308;SDS011;8263;48.880;9.276;2023-05-19T12:55:24;120.80;;;112.55;;
16308;SDS011;8263;48.880;9.276;2023-05-19T12:57:51;118.05;;;110.13;;
16308;SDS011;8263;48.880;9.276;2023-05-19T13:00:21;121.15;;;112.97;;
16308;SDS011;8263;48.880;9.276;2023-05-19T13:02:53;123.15;;;113.75;;
16308;SDS011;8263;48.880;9.276;2023-05-19T13:05:22;119.90;;;111.80;;
16308;SDS011;8263;48.880;9.276;2023-05-19T13:07:52;119.22;;;111.13;;
16308;SDS011;8263;48.880;9.276;2023-05-19T13:10:19;119.22;;;111.15;;
16308;SDS011;8263;48.880;9.276;2023-05-19T13:12:46;122.03;;;113.82;;
16308;SDS011;8263;48.880;9.276;2023-05-19T13:15:12;119.03;;;110.97;;
16308;SDS011;8263;48.880;9.276;2023-05-19T13:17:39;120.28;;;112.15;;
16308;SDS011;8263;48.880;9.276;2023-05-19T13:20:06;120.47;;;112.40;;
16308;SDS011;8263;48.880;9.276;2023-05-19T13:22:34;121.18;;;112.97;;
16308;SDS011;8263;48.880;9.276;2023-05-19T13:25:01;119.82;;;111.63;;
16308;SDS011;8263;48.880;9.276;2023-05-19T13:27:27;120.93;;;112.25;;
16308;SDS011;8263;48.880;9.276;2023-05-19T13:29:54;120.57;;;112.47;;
16308;SDS011;8263;48.880;9.276;2023-05-19T13:32:20;117.55;;;109.60;;
16308;SDS011;8263;48.880;9.276;2023-05-19T13:34:47;119.28;;;111.18;;
16308;SDS011;8263;48.880;9.276;2023-05-19T13:37:13;121.30;;;113.10;;
16308;SDS011;8263;48.880;9.276;2023-05-19T13:39:41;119.97;;;111.88;;
16308;SDS011;8263;48.880;9.276;2023-05-19T13:42:08;120.75;;;112.63;;
16308;SDS011;8263;48.880;9.276;2023-05-19T13:44:34;119.90;;;111.55;;
16308;SDS011;8263;48.880;9.276;2023-05-19T13:47:01;120.20;;;111.93;;
16308;SDS011;8263;48.880;9.276;2023-05-19T13:49:27;122.25;;;113.90;;
16308;SDS011;8263;48.880;9.276;2023-05-19T13:51:54;120.97;;;112.82;;
16308;SDS011;8263;48.880;9.276;2023-05-19T13:54:21;119.97;;;111.93;;
16308;SDS011;8263;48.880;9.276;2023-05-19T13:56:49;121.30;;;113.10;;
16308;SDS011;8263;48.880;9.276;2023-05-19T13:59:16;118.85;;;110.88;;
16308;SDS011;8263;48.880;9.276;2023-05-19T14:01:42;117.15;;;109.35;;
16308;SDS011;8263;48.880;9.276;2023-05-19T14:04:09;118.47;;;110.50;;
16308;SDS011;8263;48.880;9.276;2023-05-19T14:06:36;120.07;;;111.85;;
16308;SDS011;8263;48.880;9.276;2023-05-19T14:09:02;121.05;;;112.95;;
16308;SDS011;8263;48.880;9.276;2023-05-19T14:11:29;119.72;;;111.70;;
16308;SDS011;8263;48.880;9.276;2023-05-19T14:13:57;121.13;;;113.03;;
16308;SDS011;8263;48.880;9.276;2023-05-19T14:16:24;117.70;;;109.82;;
16308;SDS011;8263;48.880;9.276;2023-05-19T14:18:52;121.45;;;113.30;;